Time;durP1;ratioP1;P1;durP2;ratioP2;P2;SDS_P1;SDS_P2;PMS_P1;PMS_P2;Temp;Humidity;BMP_temperature;BMP_pressure;BME280_temperature;BME280_humidity;BME280_pressure;Samples;Min_cycle;Max_cycle;Signal;HPM_P1;HPM_P2
2022/10/07 00:01:48;;;;;;;14.43;4.03;;;8.80;99.90;;;;;;5075614;28;20604;-41
2022/10/07 00:04:15;;;;;;;11.68;3.60;;;8.80;99.90;;;;;;5076786;28;20105;-41
2022/10/07 00:06:41;;;;;;;8.32;3.75;;;8.80;99.90;;;;;;5079078;28;20537;-41
2022/10/07 00:09:07;;;;;;;12.60;4.55;;;8.80;99.90;;;;;;5061827;28;20720;-41
2022/10/07 00:11:33;;;;;;;9.88;4.50;;;8.70;99.90;;;;;;5054314;28;20055;-41
2022/10/07 00:14:02;;;;;;;12.60;4.55;;;8.70;99.90;;;;;;5059851;28;20047;-41
2022/10/07 00:16:34;;;;;;;13.93;5.63;;;8.70;99.90;;;;;;5077882;28;20487;-42
2022/10/07 00:19:03;;;;;;;12.57;5.03;;;8.60;99.90;;;;;;5069135;28;20055;-40
2022/10/07 00:21:32;;;;;;;12.15;4.80;;;8.60;99.90;;;;;;5071711;28;20040;-42
2022/10/07 00:23:58;;;;;;;9.40;5.18;;;8.60;99.90;;;;;;5070304;28;20041;-40
2022/10/07 00:26:27;;;;;;;11.18;4.20;;;8.60;99.90;;;;;;5083691;28;20056;-48
2022/10/07 00:28:53;;;;;;;12.07;4.47;;;8.60;99.90;;;;;;5074842;28;20040;-47
2022/10/07 00:31:21;;;;;;;11.27;4.55;;;8.50;99.90;;;;;;5082885;28;20040;-47
2022/10/07 00:33:48;;;;;;;11.68;4.38;;;8.50;99.90;;;;;;5047007;28;20128;-48
2022/10/07 00:36:18;;;;;;;8.95;4.55;;;8.40;99.90;;;;;;5082791;28;20052;-51
2022/10/07 00:38:51;;;;;;;14.13;4.57;;;8.40;99.90;;;;;;5078643;28;20665;-49
2022/10/07 00:41:20;;;;;;;10.75;4.57;;;8.40;99.90;;;;;;5080838;28;20078;-51
2022/10/07 00:43:47;;;;;;;11.57;5.10;;;8.30;99.90;;;;;;5077639;28;20048;-50
2022/10/07 00:46:28;;;;;;;10.48;4.97;;;8.30;99.90;;;;;;5075238;28;20467;-48
2022/10/07 00:48:59;;;;;;;10.48;5.22;;;8.30;99.90;;;;;;5083317;28;20060;-49
2022/10/07 00:51:26;;;;;;;14.90;6.13;;;8.30;99.90;;;;;;5076026;28;20068;-47
2022/10/07 00:53:54;;;;;;;12.90;6.15;;;8.30;99.90;;;;;;5061674;28;20118;-46
2022/10/07 00:56:24;;;;;;;13.18;5.03;;;8.20;99.90;;;;;;5078468;28;20902;-50
2022/10/07 00:58:50;;;;;;;9.82;5.18;;;8.20;99.90;;;;;;5079169;28;20490;-49
2022/10/07 01:01:19;;;;;;;10.93;5.63;;;8.20;99.90;;;;;;5071214;28;20036;-50
2022/10/07 01:03:47;;;;;;;11.75;5.60;;;8.20;99.90;;;;;;5082735;28;20055;-41
2022/10/07 01:06:14;;;;;;;13.05;5.65;;;8.10;99.90;;;;;;5057744;28;20047;-42
2022/10/07 01:08:42;;;;;;;13.23;5.90;;;8.10;99.90;;;;;;5058293;28;20043;-40
2022/10/07 01:11:14;;;;;;;10.93;5.03;;;8.10;99.90;;;;;;5035164;28;20089;-40
2022/10/07 01:13:55;;;;;;;15.93;5.05;;;8.00;99.90;;;;;;5060799;28;20036;-41
2022/10/07 01:16:52;;;;;;;10.52;5.57;;;8.00;99.90;;;;;;5074431;28;20534;-41
2022/10/07 01:19:43;;;;;;;10.45;5.43;;;8.00;99.90;;;;;;5073275;28;20689;-40
2022/10/07 01:22:29;;;;;;;15.43;5.78;;;8.00;99.90;;;;;;5083330;28;20487;-41
2022/10/07 01:25:14;;;;;;;12.48;5.28;;;7.90;99.90;;;;;;5080192;28;20104;-41
2022/10/07 01:27:48;;;;;;;14.68;5.53;;;8.00;99.90;;;;;;5080083;28;20052;-41
2022/10/07 01:30:15;;;;;;;12.73;5.47;;;7.90;99.90;;;;;;5065354;28;20048;-40
2022/10/07 01:32:53;;;;;;;11.10;5.57;;;7.90;99.90;;;;;;5060337;28;20131;-40
2022/10/07 01:35:24;;;;;;;15.05;6.75;;;7.90;99.90;;;;;;5059314;28;20668;-41
2022/10/07 01:37:55;;;;;;;17.48;5.78;;;7.90;99.90;;;;;;5068212;28;20051;-41
2022/10/07 01:40:57;;;;;;;12.43;6.10;;;7.90;99.90;;;;;;5057900;28;20053;-41
2022/10/07 01:43:23;;;;;;;15.63;5.90;;;7.90;99.90;;;;;;5033234;28;20040;-47
2022/10/07 01:45:52;;;;;;;10.55;6.82;;;7.90;99.90;;;;;;5074328;28;20051;-47
2022/10/07 01:48:18;;;;;;;12.52;6.30;;;7.90;99.90;;;;;;5055961;28;20056;-48
2022/10/07 01:50:46;;;;;;;13.35;5.45;;;7.80;99.90;;;;;;5062955;28;20055;-49
2022/10/07 01:53:33;;;;;;;14.23;5.70;;;7.80;99.90;;;;;;5059913;28;20744;-47
2022/10/07 01:56:13;;;;;;;11.65;5.78;;;7.80;99.90;;;;;;5078816;28;20156;-41
2022/10/07 01:58:58;;;;;;;13.88;5.50;;;7.80;99.90;;;;;;5079361;28;20105;-41
2022/10/07 02:01:30;;;;;;;10.23;4.85;;;7.80;99.90;;;;;;5064870;28;20128;-42
2022/10/07 02:04:29;;;;;;;11.95;5.75;;;7.80;99.90;;;;;;5045587;28;20050;-49
2022/10/07 02:07:23;;;;;;;11.50;5.78;;;7.70;99.90;;;;;;5073550;28;20495;-40
2022/10/07 02:10:14;;;;;;;11.45;5.72;;;7.80;99.90;;;;;;5063018;28;20832;-42
2022/10/07 02:12:43;;;;;;;;;;;7.70;99.90;;;;;;5064898;28;20117;-41
2022/10/07 02:15:18;;;;;;;12.55;5.65;;;7.70;99.90;;;;;;5078229;28;20655;-42
2022/10/07 02:17:50;;;;;;;16.55;7.00;;;7.70;99.90;;;;;;5040361;28;20052;-47
2022/10/07 02:20:19;;;;;;;11.77;5.65;;;7.70;99.90;;;;;;5062569;28;20036;-50
2022/10/07 02:22:47;;;;;;;16.00;5.60;;;7.70;99.90;;;;;;5079554;28;20040;-52
2022/10/07 02:25:15;;;;;;;11.05;5.75;;;7.70;99.90;;;;;;5043283;28;20075;-47
2022/10/07 02:27:44;;;;;;;11.90;5.75;;;7.70;99.90;;;;;;5078663;28;20072;-47
2022/10/07 02:30:14;;;;;;;18.17;5.78;;;7.70;99.90;;;;;;5069481;28;20078;-50
2022/10/07 02:32:52;;;;;;;16.02;5.30;;;7.70;99.90;;;;;;5076875;28;20095;-50
2022/10/07 02:35:34;;;;;;;16.70;5.60;;;7.80;99.90;;;;;;5060570;28;20125;-50
2022/10/07 02:38:06;;;;;;;13.57;6.00;;;7.80;99.90;;;;;;5057553;28;20079;-50
2022/10/07 02:40:42;;;;;;;10.27;5.10;;;7.70;99.90;;;;;;5078295;28;20849;-49
2022/10/07 02:43:16;;;;;;;12.05;6.20;;;7.70;99.90;;;;;;5051444;28;20084;-47
2022/10/07 02:45:53;;;;;;;13.27;5.50;;;7.80;99.90;;;;;;5082193;28;20044;-41
2022/10/07 02:48:30;;;;;;;14.05;5.63;;;7.80;99.90;;;;;;5074823;28;20149;-41
2022/10/07 02:51:03;;;;;;;12.60;6.25;;;7.80;99.90;;;;;;5046570;28;20059;-41
2022/10/07 02:53:32;;;;;;;13.63;6.43;;;7.80;99.90;;;;;;5056902;28;20202;-41
2022/10/07 02:56:02;;;;;;;14.32;5.80;;;7.80;99.90;;;;;;5079164;28;20051;-52
2022/10/07 02:58:30;;;;;;;12.73;5.53;;;7.90;99.90;;;;;;5040628;28;20040;-48
2022/10/07 03:01:01;;;;;;;13.98;6.38;;;7.80;99.90;;;;;;5077294;28;20152;-48
2022/10/07 03:03:29;;;;;;;9.68;5.65;;;7.90;99.90;;;;;;5079024;28;20417;-41
2022/10/07 03:06:00;;;;;;;13.70;5.50;;;7.90;99.90;;;;;;5068878;28;20575;-51
2022/10/07 03:08:27;;;;;;;16.42;5.78;;;7.90;99.90;;;;;;5058712;28;20892;-42
2022/10/07 03:10:54;;;;;;;12.25;5.70;;;7.90;99.90;;;;;;5072157;28;20051;-40
2022/10/07 03:13:20;;;;;;;12.18;5.78;;;7.90;99.90;;;;;;5076064;28;20066;-40
2022/10/07 03:15:51;;;;;;;14.43;5.70;;;7.90;99.90;;;;;;5062450;28;20130;-41
2022/10/07 03:18:25;;;;;;;12.40;5.73;;;7.90;99.90;;;;;;5021984;28;20108;-40
2022/10/07 03:20:59;;;;;;;13.55;6.25;;;8.00;99.90;;;;;;5075985;28;20530;-43
2022/10/07 03:23:27;;;;;;;13.50;5.95;;;7.90;99.90;;;;;;5077862;28;20115;-41
2022/10/07 03:25:57;;;;;;;13.90;6.50;;;7.90;99.90;;;;;;5058988;28;20506;-41
2022/10/07 03:28:24;;;;;;;16.52;5.85;;;7.90;99.90;;;;;;5041905;28;20056;-41
2022/10/07 03:30:51;;;;;;;16.13;6.50;;;7.90;99.90;;;;;;5070867;28;20048;-42
2022/10/07 03:33:20;;;;;;;16.02;5.90;;;7.90;99.90;;;;;;5050438;28;20048;-40
2022/10/07 03:35:46;;;;;;;19.52;6.93;;;7.90;99.90;;;;;;5054752;28;20056;-42
2022/10/07 03:38:12;;;;;;;15.55;6.72;;;7.90;99.90;;;;;;5073280;28;20040;-42
2022/10/07 03:40:39;;;;;;;18.05;7.10;;;8.00;99.90;;;;;;5074742;28;20043;-41
2022/10/07 03:43:06;;;;;;;13.02;6.30;;;8.00;99.90;;;;;;5060468;28;20783;-42
2022/10/07 03:45:36;;;;;;;16.77;5.93;;;7.90;99.90;;;;;;5076224;28;20048;-41
2022/10/07 03:48:02;;;;;;;19.67;6.95;;;8.00;99.90;;;;;;5059393;28;20894;-41
2022/10/07 03:50:28;;;;;;;17.73;7.18;;;8.00;99.90;;;;;;5060074;28;20044;-40
2022/10/07 03:52:55;;;;;;;18.58;6.43;;;8.00;99.90;;;;;;5042749;28;20108;-42
2022/10/07 03:55:21;;;;;;;13.07;6.60;;;7.90;99.90;;;;;;5078383;28;20609;-42
2022/10/07 03:57:50;;;;;;;17.98;6.40;;;7.90;99.90;;;;;;5056318;28;20117;-41
2022/10/07 04:00:19;;;;;;;18.00;6.85;;;7.90;99.90;;;;;;5057685;28;20052;-43
2022/10/07 04:02:51;;;;;;;18.30;7.68;;;7.90;99.90;;;;;;5049777;28;20044;-41
2022/10/07 04:05:19;;;;;;;23.65;7.78;;;7.90;99.90;;;;;;5078785;28;20048;-42
2022/10/07 04:07:47;;;;;;;17.10;6.85;;;7.90;99.90;;;;;;5079566;28;20133;-42
2022/10/07 04:10:16;;;;;;;13.32;6.68;;;7.90;99.90;;;;;;5070059;28;20074;-40
2022/10/07 04:12:50;;;;;;;18.92;6.38;;;7.90;99.90;;;;;;5077875;28;20078;-41
2022/10/07 04:15:16;;;;;;;18.33;7.35;;;7.90;99.90;;;;;;5075860;28;20048;-42
2022/10/07 04:17:45;;;;;;;17.65;7.90;;;7.90;99.90;;;;;;5062179;28;20063;-42
2022/10/07 04:20:15;;;;;;;15.15;6.82;;;7.90;99.90;;;;;;5074979;28;20048;-41
2022/10/07 04:22:42;;;;;;;18.98;6.70;;;8.00;99.90;;;;;;5075959;28;20737;-41
2022/10/07 04:27:57;;;;;;;19.13;7.57;;;7.90;99.90;;;;;;5069964;28;20052;-40
2022/10/07 04:30:26;;;;;;;22.48;7.55;;;8.00;99.90;;;;;;5071235;28;20112;-40
2022/10/07 04:32:53;;;;;;;23.55;8.65;;;8.00;99.90;;;;;;5071398;28;20051;-40
2022/10/07 04:35:22;;;;;;;21.67;7.68;;;8.00;99.90;;;;;;5073348;28;20052;-43
2022/10/07 04:37:50;;;;;;;18.10;6.97;;;7.90;99.90;;;;;;5045892;28;20433;-41
2022/10/07 04:40:18;;;;;;;25.08;8.00;;;7.90;99.90;;;;;;5045937;28;20064;-41
2022/10/07 04:45:31;;;;;;;21.27;7.68;;;7.90;99.90;;;;;;5077813;28;20040;-39
2022/10/07 04:47:58;;;;;;;15.38;6.63;;;7.90;99.90;;;;;;5075242;28;20703;-40
2022/10/07 04:50:24;;;;;;;20.98;8.10;;;7.90;99.90;;;;;;5054133;28;20092;-42
2022/10/07 04:52:58;;;;;;;19.60;7.93;;;7.90;99.90;;;;;;5073355;28;20511;-49
2022/10/07 04:55:27;;;;;;;17.13;8.38;;;7.90;99.90;;;;;;5071692;28;20052;-49
2022/10/07 04:57:53;;;;;;;21.33;7.97;;;7.90;99.90;;;;;;5043726;28;20086;-49
2022/10/07 05:00:20;;;;;;;21.45;7.47;;;8.00;99.90;;;;;;5061005;28;20503;-48
2022/10/07 05:02:49;;;;;;;18.23;8.35;;;8.00;99.90;;;;;;5039129;28;20060;-49
2022/10/07 05:05:16;;;;;;;16.88;8.02;;;8.00;99.90;;;;;;5041496;28;20072;-48
2022/10/07 05:07:47;;;;;;;17.95;8.52;;;8.00;99.90;;;;;;5062595;28;20101;-47
2022/10/07 05:10:14;;;;;;;16.75;7.97;;;8.00;99.90;;;;;;5081913;28;20052;-48
2022/10/07 05:12:41;;;;;;;18.25;7.78;;;8.10;99.90;;;;;;5046812;28;20055;-41
2022/10/07 05:15:08;;;;;;;15.85;7.80;;;8.10;99.90;;;;;;5044252;28;20050;-40
2022/10/07 05:17:34;;;;;;;22.90;8.30;;;8.10;99.90;;;;;;5059487;28;20480;-41
2022/10/07 05:20:03;;;;;;;18.48;8.13;;;8.10;99.90;;;;;;5073427;28;20040;-41
2022/10/07 05:22:30;;;;;;;21.42;8.82;;;8.20;99.90;;;;;;5067785;28;20028;-40
2022/10/07 05:24:57;;;;;;;24.10;9.02;;;8.20;99.90;;;;;;5078365;28;20051;-40
2022/10/07 05:27:24;;;;;;;23.63;8.88;;;8.20;99.90;;;;;;5043422;28;20763;-50
2022/10/07 05:29:50;;;;;;;24.45;10.02;;;8.40;99.90;;;;;;5057915;28;20063;-49
2022/10/07 05:32:16;;;;;;;17.58;8.20;;;8.40;99.90;;;;;;5073193;28;20048;-47
2022/10/07 05:34:43;;;;;;;24.02;8.95;;;8.30;99.90;;;;;;5021416;28;20048;-40
2022/10/07 05:37:11;;;;;;;16.27;8.65;;;8.30;99.90;;;;;;5038223;28;20137;-43
2022/10/07 05:39:37;;;;;;;16.48;8.48;;;8.30;99.90;;;;;;5043933;28;20052;-40
2022/10/07 05:42:12;;;;;;;22.38;8.27;;;8.30;99.90;;;;;;5057844;28;20050;-41
2022/10/07 05:44:43;;;;;;;19.67;8.75;;;8.30;99.90;;;;;;5057627;28;20040;-40
2022/10/07 05:47:11;;;;;;;17.90;8.02;;;8.30;99.90;;;;;;5074457;28;20048;-40
2022/10/07 05:49:37;;;;;;;20.58;9.13;;;8.30;99.90;;;;;;5052666;28;20043;-40
2022/10/07 05:52:04;;;;;;;20.40;8.82;;;8.30;99.90;;;;;;5072097;28;20813;-40
2022/10/07 05:54:34;;;;;;;19.30;7.97;;;8.30;99.90;;;;;;5059250;28;20055;-50
2022/10/07 05:57:02;;;;;;;21.63;8.38;;;8.40;99.90;;;;;;5058951;28;20131;-51
2022/10/07 05:59:30;;;;;;;24.27;9.10;;;8.40;99.90;;;;;;5078053;28;20047;-50
2022/10/07 06:01:59;;;;;;;22.95;8.43;;;8.40;99.90;;;;;;5058456;28;20407;-40
2022/10/07 06:04:26;;;;;;;20.27;8.13;;;8.40;99.90;;;;;;5073015;28;20047;-40
2022/10/07 06:06:52;;;;;;;21.88;8.05;;;8.40;99.90;;;;;;5054412;28;20043;-40
2022/10/07 06:14:56;;;;;;;18.60;8.18;;;8.50;99.90;;;;;;5056031;28;20134;-40
2022/10/07 06:17:22;;;;;;;19.02;8.65;;;8.60;99.90;;;;;;5033939;28;20533;-40
2022/10/07 06:19:50;;;;;;;23.95;7.80;;;8.60;99.90;;;;;;5065362;28;20040;-40
2022/10/07 06:22:18;;;;;;;17.08;8.13;;;8.70;99.90;;;;;;5056247;28;20044;-40
2022/10/07 06:24:46;;;;;;;20.05;7.85;;;8.70;99.90;;;;;;5024656;28;20045;-40
2022/10/07 06:27:13;;;;;;;19.45;7.90;;;8.80;99.90;;;;;;5060731;28;20048;-47
2022/10/07 06:29:41;;;;;;;19.95;8.18;;;8.80;99.90;;;;;;5069098;28;20056;-40
2022/10/07 06:32:07;;;;;;;26.77;8.38;;;8.90;99.90;;;;;;5051770;28;20048;-39
2022/10/07 06:34:34;;;;;;;20.85;8.13;;;8.90;99.90;;;;;;5052394;28;20662;-50
2022/10/07 06:37:00;;;;;;;22.15;6.72;;;9.00;99.90;;;;;;5074410;28;21233;-48
2022/10/07 06:39:26;;;;;;;19.20;7.25;;;9.10;99.90;;;;;;5071891;28;20055;-52
2022/10/07 06:41:55;;;;;;;16.90;7.07;;;9.20;99.90;;;;;;5069483;28;20048;-40
2022/10/07 06:44:40;;;;;;;17.67;6.85;;;9.30;99.90;;;;;;5039227;28;20320;-39
2022/10/07 06:47:09;;;;;;;23.23;6.60;;;9.30;99.90;;;;;;5067090;28;20044;-41
2022/10/07 06:49:36;;;;;;;17.33;6.70;;;9.30;99.90;;;;;;5071213;28;20055;-40
2022/10/07 06:52:02;;;;;;;18.90;5.75;;;9.50;99.90;;;;;;5069813;28;20044;-47
2022/10/07 06:54:29;;;;;;;13.80;6.18;;;9.60;99.90;;;;;;5039890;28;20128;-48
2022/10/07 06:56:55;;;;;;;23.67;6.88;;;9.70;99.90;;;;;;5085655;28;20056;-48
2022/10/07 06:59:22;;;;;;;18.15;6.53;;;9.80;99.90;;;;;;5055490;28;20130;-49
2022/10/07 07:01:58;;;;;;;18.73;6.65;;;9.80;99.90;;;;;;5053446;28;20133;-50
2022/10/07 07:04:24;;;;;;;12.43;6.50;;;9.90;99.90;;;;;;5055641;28;20099;-49
2022/10/07 07:06:50;;;;;;;18.77;6.40;;;10.00;99.90;;;;;;5052246;28;20132;-50
2022/10/07 07:09:17;;;;;;;23.90;5.35;;;10.20;99.90;;;;;;5056155;28;20960;-52
2022/10/07 07:11:45;;;;;;;16.00;5.80;;;10.50;99.90;;;;;;5058027;28;20047;-49
2022/10/07 07:14:18;;;;;;;13.00;5.05;;;10.70;99.90;;;;;;5072001;28;20051;-50
2022/10/07 07:16:52;;;;;;;15.93;5.03;;;10.90;99.90;;;;;;5074358;28;20153;-51
2022/10/07 07:19:18;;;;;;;20.70;5.85;;;11.30;99.90;;;;;;5056402;28;20042;-42
2022/10/07 07:21:45;;;;;;;16.42;5.32;;;11.60;99.90;;;;;;5054960;28;20047;-42
2022/10/07 07:24:15;;;;;;;18.13;4.63;;;11.90;99.90;;;;;;5065304;28;20040;-51
2022/10/07 07:26:43;;;;;;;13.75;4.20;;;12.20;99.90;;;;;;5045608;28;20086;-41
2022/10/07 07:29:13;;;;;;;16.13;4.38;;;12.40;99.90;;;;;;5036007;28;20090;-52
2022/10/07 07:31:49;;;;;;;10.73;3.58;;;12.80;99.90;;;;;;5063846;28;20706;-51
2022/10/07 07:34:17;;;;;;;15.13;4.10;;;13.20;99.90;;;;;;5046280;28;20052;-51
2022/10/07 07:36:47;;;;;;;12.23;3.40;;;13.40;99.90;;;;;;5049103;28;20055;-48
2022/10/07 07:39:17;;;;;;;17.17;4.00;;;13.50;99.90;;;;;;5054455;28;20039;-50
2022/10/07 07:41:46;;;;;;;13.45;3.83;;;13.60;99.90;;;;;;5064666;28;20056;-50
2022/10/07 07:44:17;;;;;;;12.07;3.80;;;13.50;99.90;;;;;;5052531;28;20569;-48
2022/10/07 07:46:48;;;;;;;9.30;3.60;;;13.30;99.90;;;;;;5049819;28;20801;-47
2022/10/07 07:49:15;;;;;;;14.40;4.18;;;13.60;99.90;;;;;;5071429;28;20049;-48
2022/10/07 07:51:43;;;;;;;12.95;4.55;;;13.90;99.90;;;;;;5068823;28;20123;-48
2022/10/07 07:54:14;;;;;;;15.75;3.50;;;14.30;99.90;;;;;;5047069;28;20120;-49
2022/10/07 07:56:43;;;;;;;16.73;4.55;;;14.60;99.90;;;;;;5050579;28;20067;-51
2022/10/07 07:59:11;;;;;;;14.20;3.55;;;15.00;99.90;;;;;;5035843;28;20077;-47
2022/10/07 08:01:38;;;;;;;14.05;4.55;;;15.20;99.90;;;;;;5086303;28;20052;-49
2022/10/07 08:04:05;;;;;;;10.65;3.35;;;15.70;99.90;;;;;;5032721;28;20051;-49
2022/10/07 08:06:33;;;;;;;11.13;3.72;;;15.80;99.90;;;;;;5067171;28;20051;-42
2022/10/07 08:09:02;;;;;;;12.93;3.40;;;15.60;99.90;;;;;;5072945;28;20747;-48
2022/10/07 08:11:31;;;;;;;12.55;3.40;;;16.00;99.90;;;;;;5032989;28;20052;-51
2022/10/07 08:13:58;;;;;;;14.43;3.60;;;16.00;99.90;;;;;;5063179;28;20044;-52
2022/10/07 08:16:28;;;;;;;13.23;3.75;;;15.70;99.90;;;;;;5067690;28;20106;-48
2022/10/07 08:18:56;;;;;;;15.02;4.22;;;15.50;99.90;;;;;;5035300;28;20047;-52
2022/10/07 08:21:25;;;;;;;14.73;4.57;;;15.00;99.90;;;;;;5065209;28;20051;-51
2022/10/07 08:23:57;;;;;;;17.98;5.90;;;14.50;99.90;;;;;;5048741;28;20610;-51
2022/10/07 08:26:29;;;;;;;13.88;4.18;;;14.30;99.90;;;;;;5051644;28;20086;-48
2022/10/07 08:28:57;;;;;;;13.90;3.78;;;14.00;99.90;;;;;;5069441;28;20048;-43
2022/10/07 08:31:27;;;;;;;17.02;3.70;;;13.90;99.90;;;;;;5034268;28;20725;-42
2022/10/07 08:33:55;;;;;;;13.13;4.00;;;13.80;99.90;;;;;;5069624;28;20407;-41
2022/10/07 08:36:22;;;;;;;15.98;3.35;;;13.90;99.90;;;;;;5071701;28;20051;-43
2022/10/07 08:38:49;;;;;;;15.02;4.25;;;14.30;99.90;;;;;;5070754;28;20108;-52
2022/10/07 08:41:32;;;;;;;17.35;3.72;;;14.80;99.90;;;;;;5068643;28;20055;-52
2022/10/07 08:44:25;;;;;;;15.95;4.65;;;15.60;99.90;;;;;;5066517;28;20036;-52
2022/10/07 08:47:15;;;;;;;15.77;4.32;;;16.50;99.90;;;;;;5072721;28;20044;-43
2022/10/07 08:50:03;;;;;;;13.27;3.38;;;16.60;99.90;;;;;;5073142;28;20083;-45
2022/10/07 08:52:35;;;;;;;12.63;3.55;;;17.60;99.90;;;;;;5060173;28;20040;-45
2022/10/07 08:55:10;;;;;;;13.40;3.72;;;17.80;99.90;;;;;;5061908;28;20052;-45
2022/10/07 08:58:04;;;;;;;11.23;3.50;;;18.20;99.90;;;;;;5072854;28;20651;-46
2022/10/07 09:00:48;;;;;;;11.65;3.47;;;18.50;99.90;;;;;;5077709;28;20052;-47
2022/10/07 09:03:29;;;;;;;11.77;3.50;;;18.60;99.90;;;;;;5072465;28;20082;-45
2022/10/07 09:05:58;;;;;;;14.20;3.28;;;18.60;99.90;;;;;;5071202;28;20143;-46
2022/10/07 09:08:34;;;;;;;14.20;3.25;;;18.70;99.90;;;;;;5075826;28;20795;-43
2022/10/07 09:11:14;;;;;;;14.80;3.75;;;18.90;99.90;;;;;;5076053;28;20437;-44
2022/10/07 09:13:49;;;;;;;9.85;3.38;;;19.20;99.90;;;;;;5036242;28;20044;-43
2022/10/07 09:16:42;;;;;;;10.95;2.58;;;19.70;99.90;;;;;;5071680;28;20048;-51
2022/10/07 09:19:27;;;;;;;12.07;3.25;;;20.40;99.90;;;;;;5077805;28;20056;-48
2022/10/07 09:21:59;;;;;;;11.50;2.97;;;19.90;99.90;;;;;;5073480;28;20612;-51
2022/10/07 09:24:27;;;;;;;11.43;3.75;;;20.20;99.90;;;;;;5065982;28;20052;-47
2022/10/07 09:26:57;;;;;;;13.65;3.97;;;19.90;99.90;;;;;;5076116;28;20044;-49
2022/10/07 09:29:26;;;;;;;13.00;3.05;;;20.10;99.90;;;;;;5072593;28;20082;-43
2022/10/07 09:31:54;;;;;;;16.05;3.53;;;20.80;99.90;;;;;;5070517;28;20441;-44
2022/10/07 09:34:26;;;;;;;15.75;3.70;;;20.80;99.90;;;;;;5074176;28;20044;-45
2022/10/07 09:37:22;;;;;;;11.73;2.78;;;20.40;99.90;;;;;;5068774;28;20056;-52
2022/10/07 09:39:53;;;;;;;11.68;3.78;;;20.10;99.90;;;;;;5059900;28;20048;-52
2022/10/07 09:42:39;;;;;;;;;;;20.50;99.90;;;;;;5074289;28;20040;-49
2022/10/07 09:45:25;;;;;;;13.15;3.22;;;20.20;99.90;;;;;;5074439;28;20006;-49
2022/10/07 09:47:54;;;;;;;18.05;3.65;;;20.30;99.90;;;;;;5073514;28;20046;-50
2022/10/07 09:50:39;;;;;;;14.40;3.58;;;21.00;99.90;;;;;;5077390;28;20063;-46
2022/10/07 09:53:25;;;;;;;13.00;2.95;;;20.90;99.90;;;;;;5069641;28;20058;-48
2022/10/07 09:55:54;;;;;;;16.20;3.00;;;20.50;99.90;;;;;;5063934;28;20236;-48
2022/10/07 09:58:31;;;;;;;14.32;2.88;;;19.40;99.90;;;;;;5074090;28;20052;-48
2022/10/07 10:00:59;;;;;;;10.88;2.65;;;20.00;99.90;;;;;;5065134;28;20258;-47
2022/10/07 10:03:34;;;;;;;12.88;2.88;;;20.40;99.90;;;;;;5072205;28;20071;-51
2022/10/07 10:06:08;;;;;;;11.77;3.30;;;20.70;99.90;;;;;;5072153;28;20040;-49
2022/10/07 10:08:38;;;;;;;10.82;2.85;;;20.50;99.90;;;;;;5072606;28;20075;-49
2022/10/07 10:11:22;;;;;;;13.15;3.00;;;20.70;99.90;;;;;;5070529;28;20066;-51
2022/10/07 10:13:50;;;;;;;14.43;3.05;;;20.90;99.90;;;;;;5075030;28;20044;-52
2022/10/07 10:16:35;;;;;;;14.02;3.20;;;20.80;99.90;;;;;;5075521;28;20047;-52
2022/10/07 10:19:04;;;;;;;12.27;3.78;;;20.20;99.90;;;;;;5071807;28;20056;-50
2022/10/07 10:21:35;;;;;;;11.77;3.22;;;20.70;99.90;;;;;;5073493;28;20056;-50
2022/10/07 10:24:04;;;;;;;9.77;2.20;;;21.50;99.90;;;;;;5075428;28;20561;-51
2022/10/07 10:26:47;;;;;;;10.70;2.78;;;21.50;99.90;;;;;;5071483;28;20054;-48
2022/10/07 10:29:31;;;;;;;10.27;2.63;;;21.90;99.90;;;;;;5059709;28;20047;-51
2022/10/07 10:32:06;;;;;;;11.45;2.53;;;22.00;99.90;;;;;;5066126;28;20048;-49
2022/10/07 10:34:55;;;;;;;8.82;2.40;;;22.10;99.90;;;;;;5071335;28;20079;-51
2022/10/07 10:37:39;;;;;;;11.65;2.83;;;22.60;99.90;;;;;;5086487;28;20116;-51
2022/10/07 10:40:33;;;;;;;13.27;3.08;;;22.70;99.90;;;;;;5066929;28;20044;-49
2022/10/07 10:43:29;;;;;;;11.48;2.75;;;22.30;99.90;;;;;;5068366;28;20092;-52
2022/10/07 10:46:20;;;;;;;12.65;2.85;;;21.70;99.90;;;;;;5069987;28;20044;-50
2022/10/07 10:48:54;;;;;;;12.30;2.90;;;21.80;99.90;;;;;;5073584;28;20055;-51
2022/10/07 10:51:44;;;;;;;10.52;3.03;;;21.80;99.90;;;;;;5070691;28;20068;-51
2022/10/07 10:54:37;;;;;;;11.63;2.87;;;22.30;99.90;;;;;;5019219;28;20036;-49
2022/10/07 10:57:29;;;;;;;11.18;3.13;;;22.80;99.20;;;;;;5070502;28;20089;-50
2022/10/07 10:59:54;;;;;;;;;;;23.20;99.40;;;;;;5069518;28;20052;-51
2022/10/07 11:02:36;;;;;;;13.93;4.60;;;22.80;98.00;;;;;;5064443;28;20420;-44
2022/10/07 11:05:05;;;;;;;;;;;23.10;98.50;;;;;;5031668;28;20044;-45
2022/10/07 11:07:52;;;;;;;13.05;2.75;;;22.40;98.20;;;;;;5065722;28;19931;-43
2022/10/07 11:10:47;;;;;;;13.30;3.03;;;22.90;97.60;;;;;;5066611;28;20040;-44
2022/10/07 11:13:45;;;;;;;13.20;3.03;;;22.80;97.60;;;;;;5073030;28;20766;-45
2022/10/07 11:16:24;;;;;;;14.23;3.00;;;22.60;98.50;;;;;;5072670;28;20048;-48
2022/10/07 11:19:00;;;;;;;9.55;2.92;;;22.70;98.50;;;;;;5068389;28;20072;-48
2022/10/07 11:21:49;;;;;;;15.45;4.28;;;22.90;98.30;;;;;;5068495;28;20105;-46
2022/10/07 11:24:34;;;;;;;11.15;3.13;;;22.40;99.40;;;;;;5058513;28;20037;-43
2022/10/07 11:27:16;;;;;;;13.23;3.40;;;21.20;99.90;;;;;;5073085;28;20052;-43
2022/10/07 11:30:01;;;;;;;;;;;20.80;99.90;;;;;;5071301;28;20063;-42
2022/10/07 11:32:29;;;;;;;12.32;3.53;;;20.20;99.90;;;;;;5075981;28;19927;-46
2022/10/07 11:35:12;;;;;;;15.13;3.42;;;20.40;99.90;;;;;;5069428;28;20074;-45
2022/10/07 11:37:47;;;;;;;13.52;3.50;;;21.00;99.90;;;;;;5067638;28;20064;-43
2022/10/07 11:40:15;;;;;;;13.73;3.28;;;21.80;99.90;;;;;;5075114;28;20040;-44
2022/10/07 11:42:45;;;;;;;12.75;3.55;;;21.60;99.90;;;;;;5075408;28;20379;-49
2022/10/07 11:45:25;;;;;;;12.15;3.28;;;22.20;99.90;;;;;;5055899;28;20660;-49
2022/10/07 11:48:06;;;;;;;10.48;2.85;;;22.60;99.90;;;;;;5075133;28;20044;-50
2022/10/07 11:50:38;;;;;;;13.10;3.03;;;22.90;99.50;;;;;;5073309;28;20067;-53
2022/10/07 11:53:13;;;;;;;12.23;3.05;;;22.50;99.40;;;;;;5069470;28;20055;-48
2022/10/07 11:55:45;;;;;;;8.32;2.65;;;22.60;99.90;;;;;;5067957;28;20354;-50
2022/10/07 11:58:31;;;;;;;11.18;3.22;;;22.90;99.20;;;;;;5068010;28;20073;-52
2022/10/07 12:01:25;;;;;;;11.00;2.50;;;22.60;98.40;;;;;;5067965;28;20067;-44
2022/10/07 12:04:11;;;;;;;12.90;3.28;;;21.90;99.20;;;;;;5054544;28;20036;-45
2022/10/07 12:06:37;;;;;;;13.65;2.67;;;20.90;99.90;;;;;;5071030;28;20261;-47
2022/10/07 12:09:41;;;;;;;11.75;2.83;;;20.20;99.90;;;;;;5070948;28;20149;-43
2022/10/07 12:12:12;;;;;;;10.68;3.65;;;19.50;99.90;;;;;;5064690;28;20131;-44
2022/10/07 12:14:56;;;;;;;12.50;3.08;;;19.30;99.90;;;;;;5072444;28;20467;-44
2022/10/07 12:17:24;;;;;;;12.88;3.35;;;19.00;99.90;;;;;;5074705;28;20052;-49
2022/10/07 12:20:30;;;;;;;9.68;3.15;;;18.80;99.90;;;;;;5077690;28;20042;-48
2022/10/07 12:23:18;;;;;;;11.57;3.63;;;18.50;99.90;;;;;;5074177;28;20080;-41
2022/10/07 12:25:54;;;;;;;11.98;2.63;;;18.60;99.90;;;;;;5078160;28;20044;-43
2022/10/07 12:28:41;;;;;;;17.65;3.58;;;18.70;99.90;;;;;;5076892;28;20056;-44
2022/10/07 12:31:22;;;;;;;12.25;2.63;;;18.70;99.90;;;;;;5078022;28;20406;-43
2022/10/07 12:33:58;;;;;;;9.93;2.90;;;18.70;99.90;;;;;;5078709;28;20060;-43
2022/10/07 12:36:28;;;;;;;12.65;2.60;;;18.70;99.90;;;;;;5071293;28;20051;-43
2022/10/07 12:38:55;;;;;;;12.13;2.83;;;18.70;99.90;;;;;;5075753;28;20051;-42
2022/10/07 12:41:26;;;;;;;8.77;2.20;;;18.70;99.90;;;;;;5073485;28;20341;-43
2022/10/07 12:44:05;;;;;;;10.48;3.00;;;18.80;99.90;;;;;;5073645;28;20052;-42
2022/10/07 12:46:40;;;;;;;8.93;2.55;;;18.80;99.90;;;;;;5039782;28;20139;-42
2022/10/07 12:49:30;;;;;;;11.18;2.65;;;18.90;99.90;;;;;;5076762;28;20048;-42
2022/10/07 12:52:02;;;;;;;9.30;2.22;;;18.70;99.90;;;;;;5073140;28;20071;-42
2022/10/07 12:54:36;;;;;;;8.88;2.75;;;18.80;99.90;;;;;;5075071;28;20125;-43
2022/10/07 12:57:09;;;;;;;9.35;1.98;;;18.80;99.90;;;;;;5075102;28;20056;-42
2022/10/07 12:59:47;;;;;;;8.57;1.95;;;18.70;99.90;;;;;;5073458;28;20052;-43
2022/10/07 13:02:34;;;;;;;11.82;2.50;;;18.80;99.90;;;;;;5075497;28;20044;-48
2022/10/07 13:05:12;;;;;;;10.65;2.58;;;18.80;99.90;;;;;;5072085;28;20047;-45
2022/10/07 13:08:07;;;;;;;9.10;2.30;;;18.60;99.90;;;;;;5073179;28;20784;-42
2022/10/07 13:10:51;;;;;;;8.80;1.95;;;18.60;99.90;;;;;;5053825;28;20459;-45
2022/10/07 13:13:29;;;;;;;10.95;2.75;;;18.30;99.90;;;;;;5072078;28;20048;-47
2022/10/07 13:16:08;;;;;;;8.07;2.20;;;18.30;99.90;;;;;;5075509;28;20048;-43
2022/10/07 13:18:43;;;;;;;8.63;2.35;;;18.40;99.90;;;;;;5074644;28;20063;-46
2022/10/07 13:21:45;;;;;;;9.98;2.10;;;18.50;99.90;;;;;;5091410;28;20689;-53
2022/10/07 13:24:20;;;;;;;10.85;3.50;;;18.50;99.90;;;;;;5065879;28;20044;-52
2022/10/07 13:26:46;;;;;;;8.32;2.03;;;18.60;99.90;;;;;;5074371;28;20035;-52
2022/10/07 13:29:33;;;;;;;8.70;2.33;;;18.60;99.90;;;;;;5069107;28;20047;-52